createdAt,value
2023-04-25T00:00:27.078Z,0
2023-04-25T00:01:28.041Z,0
2023-04-25T00:02:28.110Z,0
2023-04-25T00:03:29.442Z,0
2023-04-25T00:04:31.229Z,0
2023-04-25T00:05:30.904Z,0
2023-04-25T00:06:30.430Z,0
2023-04-25T00:07:30.978Z,0
2023-04-25T00:08:31.724Z,0
2023-04-25T00:09:32.486Z,0
2023-04-25T00:10:33.274Z,0
2023-04-25T00:11:34.207Z,0
2023-04-25T00:12:34.935Z,0
2023-04-25T00:13:35.329Z,0
2023-04-25T00:14:36.070Z,0
2023-04-25T00:15:36.585Z,0
2023-04-25T00:16:37.702Z,0
2023-04-25T00:17:37.882Z,0
2023-04-25T00:18:37.213Z,0
2023-04-25T00:19:38.123Z,0
2023-04-25T00:20:38.079Z,0
2023-04-25T00:21:38.969Z,0
2023-04-25T00:22:39.468Z,0
2023-04-25T00:23:39.711Z,0
2023-04-25T00:24:40.197Z,0
2023-04-25T00:25:40.871Z,0
2023-04-25T00:26:41.155Z,0
2023-04-25T00:27:42.056Z,0
2023-04-25T00:28:42.342Z,0
2023-04-25T00:29:43.118Z,0
2023-04-25T00:30:43.939Z,0
2023-04-25T00:31:44.708Z,0
2023-04-25T00:32:45.999Z,0
2023-04-25T00:33:45.615Z,0
2023-04-25T00:34:46.543Z,0
2023-04-25T00:35:47.381Z,0
2023-04-25T00:36:47.908Z,0
2023-04-25T00:37:48.420Z,0
2023-04-25T00:38:48.751Z,0
2023-04-25T00:39:49.446Z,0
2023-04-25T00:40:49.760Z,0
2023-04-25T00:41:50.660Z,0
2023-04-25T00:42:51.153Z,0
2023-04-25T00:43:51.318Z,0
2023-04-25T00:44:52.461Z,0
2023-04-25T00:45:53.151Z,0
2023-04-25T00:46:54.225Z,0
2023-04-25T00:47:53.875Z,0
2023-04-25T00:48:54.587Z,0
2023-04-25T00:49:55.081Z,0
2023-04-25T00:50:55.836Z,0
2023-04-25T00:51:56.531Z,0
2023-04-25T00:52:57.212Z,0
2023-04-25T00:53:58.632Z,0
2023-04-25T00:54:58.098Z,0
2023-04-25T00:55:59.004Z,0
2023-04-25T00:56:59.696Z,0
2023-04-25T00:58:00.208Z,0
2023-04-25T00:59:01.149Z,0
2023-04-25T01:00:01.050Z,0
2023-04-25T01:01:02.224Z,0
2023-04-25T01:02:02.169Z,0
2023-04-25T01:03:03.565Z,0
2023-04-25T01:04:04.551Z,0
2023-04-25T01:05:04.295Z,0
2023-04-25T01:06:05.328Z,0
2023-04-25T01:07:04.802Z,0
2023-04-25T01:08:05.900Z,0
2023-04-25T01:09:05.615Z,0
2023-04-25T01:10:05.897Z,0
2023-04-25T01:11:06.974Z,0
2023-04-25T01:12:07.293Z,0
2023-04-25T01:13:08.036Z,0
2023-04-25T01:14:08.822Z,0
2023-04-25T01:15:09.522Z,0
2023-04-25T01:16:10.472Z,0
2023-04-25T01:17:11.928Z,0
2023-04-25T01:18:12.258Z,0
2023-04-25T01:19:11.997Z,0
2023-04-25T01:20:12.548Z,0
2023-04-25T01:21:13.555Z,0
2023-04-25T01:22:14.232Z,0
2023-04-25T01:23:14.680Z,0
2023-04-25T01:24:15.127Z,0
2023-04-25T01:25:16.069Z,0
2023-04-25T01:26:16.381Z,0
2023-04-25T01:27:16.681Z,0
2023-04-25T01:28:17.177Z,0
2023-04-25T01:29:17.268Z,0
2023-04-25T01:30:18.260Z,0
2023-04-25T01:31:18.991Z,0
2023-04-25T01:32:19.967Z,0
2023-04-25T01:33:20.246Z,0
2023-04-25T01:34:19.857Z,0
2023-04-25T01:35:21.066Z,0
2023-04-25T01:36:21.677Z,0
2023-04-25T01:37:21.933Z,0
2023-04-25T01:38:23.634Z,0
2023-04-25T01:39:24.157Z,0
2023-04-25T01:40:24.924Z,0
2023-04-25T01:41:25.612Z,0
2023-04-25T01:42:25.987Z,0
2023-04-25T01:43:26.264Z,0
2023-04-25T01:44:26.845Z,0
2023-04-25T01:45:27.356Z,0
2023-04-25T01:46:28.614Z,0
2023-04-25T01:47:30.093Z,0
2023-04-25T01:48:30.379Z,0
2023-04-25T01:49:30.962Z,0
2023-04-25T01:50:31.662Z,0
2023-04-25T01:51:32.234Z,0
2023-04-25T01:52:32.999Z,0
2023-04-25T01:53:33.495Z,0
2023-04-25T01:54:33.889Z,0
2023-04-25T01:55:34.691Z,0
2023-04-25T01:56:35.601Z,0
2023-04-25T01:57:36.327Z,0
2023-04-25T01:58:37.045Z,0
2023-04-25T01:59:37.783Z,0
2023-04-25T02:00:38.285Z,0
2023-04-25T02:01:39.253Z,0
2023-04-25T02:02:40.450Z,0
2023-04-25T02:03:41.641Z,0
2023-04-25T02:04:40.453Z,0
2023-04-25T02:05:40.997Z,0
2023-04-25T02:06:41.789Z,0
2023-04-25T02:07:42.609Z,0
2023-04-25T02:08:43.159Z,0
2023-04-25T02:09:43.947Z,0
2023-04-25T02:10:44.442Z,0
2023-04-25T02:11:44.744Z,0
2023-04-25T02:12:45.433Z,0
2023-04-25T02:13:46.131Z,0
2023-04-25T02:14:46.283Z,0
2023-04-25T02:15:47.303Z,0
2023-04-25T02:16:47.974Z,0
2023-04-25T02:17:47.978Z,0
2023-04-25T02:18:47.525Z,0
2023-04-25T02:19:48.421Z,0
2023-04-25T02:20:49.140Z,0
2023-04-25T02:21:49.878Z,0
2023-04-25T02:22:50.373Z,0
2023-04-25T02:23:51.213Z,0
2023-04-25T02:24:51.446Z,0
2023-04-25T02:25:51.947Z,0
2023-04-25T02:26:52.449Z,0
2023-04-25T02:27:53.349Z,0
2023-04-25T02:28:54.051Z,0
2023-04-25T02:29:55.028Z,0
2023-04-25T02:30:55.973Z,0
2023-04-25T02:31:57.193Z,0
2023-04-25T02:32:57.011Z,0
2023-04-25T02:33:58.178Z,0
2023-04-25T02:34:57.953Z,0
2023-04-25T02:35:58.229Z,0
2023-04-25T02:36:58.757Z,0
2023-04-25T02:37:59.885Z,0
2023-04-25T02:39:00.227Z,0
2023-04-25T02:40:01.201Z,0
2023-04-25T02:41:02.109Z,0
2023-04-25T02:42:02.382Z,0
2023-04-25T02:43:02.946Z,0
2023-04-25T02:44:03.929Z,0
2023-04-25T02:45:03.868Z,0
2023-04-25T02:46:04.571Z,0
2023-04-25T02:47:05.033Z,0
2023-04-25T02:48:06.371Z,0
2023-04-25T02:49:05.907Z,0
2023-04-25T02:50:06.836Z,0
2023-04-25T02:51:07.146Z,0
2023-04-25T02:52:07.517Z,0
2023-04-25T02:53:08.347Z,0
2023-04-25T02:54:09.027Z,0
2023-04-25T02:55:09.624Z,0
2023-04-25T02:56:10.181Z,0
2023-04-25T02:57:11.072Z,0
2023-04-25T02:58:11.603Z,0
2023-04-25T02:59:12.172Z,0
2023-04-25T03:00:12.688Z,0
2023-04-25T03:01:13.621Z,0
2023-04-25T03:02:14.358Z,0
2023-04-25T03:03:15.485Z,0
2023-04-25T03:04:15.196Z,0
2023-04-25T03:05:16.133Z,0
2023-04-25T03:06:16.665Z,0
2023-04-25T03:07:17.603Z,0
2023-04-25T03:08:16.890Z,0
2023-04-25T03:09:17.199Z,0
2023-04-25T03:10:17.547Z,0
2023-04-25T03:11:18.498Z,0
2023-04-25T03:12:19.187Z,0
2023-04-25T03:13:19.697Z,0
2023-04-25T03:14:20.219Z,0
2023-04-25T03:15:20.896Z,0
2023-04-25T03:16:21.485Z,0
2023-04-25T03:17:22.386Z,0
2023-04-25T03:18:22.562Z,0
2023-04-25T03:19:23.472Z,0
2023-04-25T03:20:24.174Z,0
2023-04-25T03:21:24.709Z,0
2023-04-25T03:22:25.559Z,0
2023-04-25T03:23:26.483Z,0
2023-04-25T03:24:27.177Z,0
2023-04-25T03:25:27.215Z,0
2023-04-25T03:26:28.141Z,0
2023-04-25T03:27:28.668Z,0
2023-04-25T03:28:29.565Z,0
2023-04-25T03:29:30.086Z,0
2023-04-25T03:30:30.787Z,0
2023-04-25T03:31:31.915Z,0
2023-04-25T03:32:33.230Z,0
2023-04-25T03:33:32.941Z,0
2023-04-25T03:34:33.649Z,0
2023-04-25T03:35:34.230Z,0
2023-04-25T03:36:35.130Z,0
2023-04-25T03:37:36.107Z,0
2023-04-25T03:38:36.655Z,0
2023-04-25T03:39:37.178Z,0
2023-04-25T03:40:38.298Z,0
2023-04-25T03:41:39.203Z,0
2023-04-25T03:42:39.366Z,0
2023-04-25T03:43:39.657Z,0
2023-04-25T03:44:39.969Z,0
2023-04-25T03:45:41.431Z,0
2023-04-25T03:46:41.761Z,0
2023-04-25T03:47:42.692Z,0
2023-04-25T03:48:41.994Z,0
2023-04-25T03:49:43.083Z,0
2023-04-25T03:50:43.970Z,0
2023-04-25T03:51:44.712Z,0
2023-04-25T03:52:45.636Z,0
2023-04-25T03:53:46.528Z,0
2023-04-25T03:54:47.025Z,0
2023-04-25T03:55:48.945Z,0
2023-04-25T03:56:48.461Z,0
2023-04-25T03:57:48.748Z,0
2023-04-25T03:58:49.477Z,0
2023-04-25T03:59:50.181Z,0
2023-04-25T04:00:50.516Z,0
2023-04-25T04:01:51.293Z,0
2023-04-25T04:02:56.373Z,0
2023-04-25T04:03:54.614Z,0
2023-04-25T04:04:55.066Z,0
2023-04-25T04:05:53.548Z,0
2023-04-25T04:06:54.400Z,0
2023-04-25T04:07:54.997Z,0
2023-04-25T04:08:55.472Z,0
2023-04-25T04:09:56.185Z,0
2023-04-25T04:10:57.038Z,0
2023-04-25T04:11:57.539Z,0
2023-04-25T04:12:58.050Z,0
2023-04-25T04:13:59.158Z,0
2023-04-25T04:14:58.450Z,0
2023-04-25T04:15:59.076Z,0
2023-04-25T04:16:59.814Z,0
2023-04-25T04:18:00.777Z,0
2023-04-25T04:19:00.059Z,0
2023-04-25T04:20:00.580Z,0
2023-04-25T04:21:01.286Z,0
2023-04-25T04:22:01.580Z,0
2023-04-25T04:23:02.346Z,0
2023-04-25T04:24:03.230Z,0
2023-04-25T04:25:03.993Z,0
2023-04-25T04:26:04.835Z,0
2023-04-25T04:27:05.550Z,0
2023-04-25T04:28:06.118Z,0
2023-04-25T04:29:06.834Z,0
2023-04-25T04:30:07.929Z,0
2023-04-25T04:31:07.792Z,0
2023-04-25T04:32:09.274Z,0
2023-04-25T04:33:09.363Z,0
2023-04-25T04:34:09.184Z,0
2023-04-25T04:35:10.108Z,0
2023-04-25T04:36:10.525Z,0
2023-04-25T04:37:10.875Z,5.63
2023-04-25T04:38:11.431Z,0
2023-04-25T04:39:12.314Z,0
2023-04-25T04:40:12.855Z,0
2023-04-25T04:41:13.365Z,0
2023-04-25T04:42:14.460Z,0
2023-04-25T04:43:15.054Z,0
2023-04-25T04:44:19.207Z,0
2023-04-25T04:45:15.506Z,0
2023-04-25T04:46:16.991Z,0
2023-04-25T04:47:17.857Z,0
2023-04-25T04:48:18.746Z,0
2023-04-25T04:49:19.466Z,5.63
2023-04-25T04:50:20.285Z,5.63
2023-04-25T04:51:20.851Z,5.63
2023-04-25T04:52:21.570Z,5.63
2023-04-25T04:53:22.730Z,5.63
2023-04-25T04:54:22.657Z,5.63
2023-04-25T04:55:22.970Z,11.25
2023-04-25T04:56:23.385Z,11.25
2023-04-25T04:57:23.690Z,11.25
2023-04-25T04:58:24.473Z,11.25
2023-04-25T04:59:25.276Z,11.25
2023-04-25T05:00:26.587Z,16.88
2023-04-25T05:01:26.408Z,16.88
2023-04-25T05:02:27.318Z,16.88
2023-04-25T05:03:27.871Z,16.88
2023-04-25T05:04:28.376Z,16.88
2023-04-25T05:05:27.989Z,16.88
2023-04-25T05:06:28.046Z,11.25
2023-04-25T05:07:28.764Z,11.25
2023-04-25T05:08:29.555Z,11.25
2023-04-25T05:09:30.050Z,11.25
2023-04-25T05:10:30.840Z,11.25
2023-04-25T05:11:31.393Z,11.25
2023-04-25T05:12:32.319Z,11.25
2023-04-25T05:13:32.634Z,11.25
2023-04-25T05:14:32.951Z,11.25
2023-04-25T05:15:33.424Z,11.25
2023-04-25T05:16:34.252Z,11.25
2023-04-25T05:17:34.962Z,11.25
2023-04-25T05:18:38.396Z,11.25
2023-04-25T05:19:35.884Z,11.25
2023-04-25T05:20:36.404Z,11.25
2023-04-25T05:21:36.494Z,11.25
2023-04-25T05:22:36.991Z,11.25
2023-04-25T05:23:25.948Z,11.25
2023-04-25T05:24:26.318Z,11.25
2023-04-25T05:25:27.489Z,11.25
2023-04-25T05:26:27.172Z,11.25
2023-04-25T05:27:27.495Z,11.25
2023-04-25T05:28:27.977Z,11.25
2023-04-25T05:29:28.487Z,11.25
2023-04-25T05:30:28.998Z,11.25
2023-04-25T05:31:29.523Z,11.25
2023-04-25T05:32:30.589Z,11.25
2023-04-25T05:33:30.376Z,16.88
2023-04-25T05:34:30.766Z,16.88
2023-04-25T05:35:31.404Z,22.5
2023-04-25T05:36:32.380Z,22.5
2023-04-25T05:37:33.278Z,22.5
2023-04-25T05:38:35.073Z,22.5
2023-04-25T05:39:34.943Z,22.5
2023-04-25T05:40:35.674Z,22.5
2023-04-25T05:41:36.582Z,22.5
2023-04-25T05:42:37.110Z,22.5
2023-04-25T05:43:38.220Z,22.5
2023-04-25T05:44:38.465Z,22.5
2023-04-25T05:45:39.260Z,16.88
2023-04-25T05:46:40.334Z,16.88
2023-04-25T05:47:40.415Z,16.88
2023-04-25T05:48:41.363Z,16.88
2023-04-25T05:49:41.304Z,16.88
2023-04-25T05:50:41.997Z,16.88
2023-04-25T05:51:42.717Z,16.88
2023-04-25T05:52:43.619Z,16.88
2023-04-25T05:53:44.112Z,16.88
2023-04-25T05:54:44.556Z,16.88
2023-04-25T05:55:45.726Z,16.88
2023-04-25T05:56:45.473Z,16.88
2023-04-25T05:57:46.456Z,16.88
2023-04-25T05:58:46.764Z,16.88
2023-04-25T05:59:47.902Z,22.5
2023-04-25T06:00:47.861Z,22.5
2023-04-25T06:01:48.596Z,22.5
2023-04-25T06:02:50.265Z,22.5
2023-04-25T06:03:51.859Z,28.13
2023-04-25T06:04:51.893Z,28.13
2023-04-25T06:05:52.030Z,22.5
2023-04-25T06:06:52.586Z,28.13
2023-04-25T06:07:53.388Z,28.13
2023-04-25T06:08:54.094Z,28.13
2023-04-25T06:09:55.266Z,28.13
2023-04-25T06:10:54.772Z,28.13
2023-04-25T06:11:55.700Z,28.13
2023-04-25T06:12:56.468Z,28.13
2023-04-25T06:13:58.105Z,33.75
2023-04-25T06:15:59.007Z,33.75
2023-04-25T06:16:58.753Z,33.75
2023-04-25T06:17:59.461Z,39.38
2023-04-25T06:19:00.362Z,39.38
2023-04-25T06:20:01.284Z,45
2023-04-25T06:21:01.841Z,50.63
2023-04-25T06:22:02.528Z,50.63
2023-04-25T06:23:03.686Z,56.25
2023-04-25T06:24:05.216Z,56.25
2023-04-25T06:25:04.597Z,56.25
2023-04-25T06:26:05.330Z,56.25
2023-04-25T06:27:06.033Z,61.88
2023-04-25T06:28:06.558Z,67.5
2023-04-25T06:29:07.093Z,67.5
2023-04-25T06:30:07.606Z,67.5
2023-04-25T06:31:08.020Z,67.5
2023-04-25T06:32:08.994Z,67.5
2023-04-25T06:33:09.984Z,61.88
2023-04-25T06:34:10.739Z,61.88
2023-04-25T06:35:11.296Z,61.88
2023-04-25T06:36:11.828Z,67.5
2023-04-25T06:37:12.376Z,67.5
2023-04-25T06:38:13.298Z,73.13
2023-04-25T06:39:14.194Z,78.75
2023-04-25T06:40:14.721Z,84.38
2023-04-25T06:41:15.430Z,95.63
2023-04-25T06:42:16.203Z,112.5
2023-04-25T06:43:17.168Z,112.5
2023-04-25T06:44:17.887Z,123.75
2023-04-25T06:45:18.150Z,135
2023-04-25T06:46:19.127Z,174.38
2023-04-25T06:47:19.901Z,343.13
2023-04-25T06:48:20.951Z,151.88
2023-04-25T06:49:21.887Z,140.63
2023-04-25T06:50:21.994Z,118.13
2023-04-25T06:51:24.237Z,118.13
2023-04-25T06:52:23.246Z,123.75
2023-04-25T06:53:24.153Z,123.75
2023-04-25T06:54:25.291Z,129.38
2023-04-25T06:55:26.381Z,123.75
2023-04-25T06:56:26.096Z,123.75
2023-04-25T06:57:26.812Z,129.38
2023-04-25T06:58:27.545Z,118.13
2023-04-25T06:59:28.363Z,118.13
2023-04-25T07:00:29.517Z,123.75
2023-04-25T07:01:29.885Z,129.38
2023-04-25T07:02:29.909Z,135
2023-04-25T07:03:30.783Z,151.88
2023-04-25T07:04:32.852Z,135
2023-04-25T07:05:32.140Z,140.63
2023-04-25T07:06:32.212Z,146.25
2023-04-25T07:07:32.977Z,151.88
2023-04-25T07:08:33.296Z,163.13
2023-04-25T07:09:34.084Z,168.75
2023-04-25T07:10:34.653Z,191.25
2023-04-25T07:11:35.793Z,174.38
2023-04-25T07:12:36.537Z,163.13
2023-04-25T07:13:37.300Z,151.88
2023-04-25T07:14:37.826Z,151.88
2023-04-25T07:15:38.722Z,151.88
2023-04-25T07:16:39.958Z,168.75
2023-04-25T07:17:40.153Z,146.25
2023-04-25T07:18:39.864Z,146.25
2023-04-25T07:19:40.872Z,151.88
2023-04-25T07:20:41.857Z,146.25
2023-04-25T07:21:42.610Z,146.25
2023-04-25T07:22:43.150Z,135
2023-04-25T07:23:44.033Z,123.75
2023-04-25T07:24:44.729Z,123.75
2023-04-25T07:25:45.231Z,118.13
2023-04-25T07:26:45.967Z,112.5
2023-04-25T07:27:47.128Z,112.5
2023-04-25T07:28:46.886Z,112.5
2023-04-25T07:29:48.006Z,112.5
2023-04-25T07:30:47.894Z,112.5
2023-04-25T07:31:48.819Z,118.13
2023-04-25T07:32:49.856Z,112.5
2023-04-25T07:33:50.379Z,112.5
2023-04-25T07:34:51.312Z,106.88
2023-04-25T07:35:51.921Z,112.5
2023-04-25T07:36:52.449Z,118.13
2023-04-25T07:37:53.594Z,135
2023-04-25T07:38:53.835Z,106.88
2023-04-25T07:39:53.620Z,118.13
2023-04-25T07:40:54.831Z,129.38
2023-04-25T07:41:55.434Z,129.38
2023-04-25T07:42:55.536Z,855
2023-04-25T07:43:56.507Z,421.88
2023-04-25T07:44:57.011Z,405
2023-04-25T07:45:57.639Z,360
2023-04-25T07:46:58.199Z,320.63
2023-04-25T07:47:58.619Z,185.63
2023-04-25T07:49:00.483Z,1096.88
2023-04-25T07:50:00.002Z,545.63
2023-04-25T07:51:00.929Z,326.25
2023-04-25T07:52:01.255Z,343.13
2023-04-25T07:53:02.411Z,748.13
2023-04-25T07:54:02.056Z,410.63
2023-04-25T07:55:02.586Z,506.25
2023-04-25T07:56:03.564Z,298.13
2023-04-25T07:57:09.840Z,292.5
2023-04-25T07:58:04.741Z,410.63
2023-04-25T07:59:05.487Z,483.75
2023-04-25T08:00:05.463Z,270
2023-04-25T08:01:05.972Z,247.5
2023-04-25T08:02:06.678Z,219.38
2023-04-25T08:03:08.337Z,230.63
2023-04-25T08:04:09.267Z,281.25
2023-04-25T08:05:09.362Z,624.38
2023-04-25T08:06:13.369Z,680.63
2023-04-25T08:07:09.968Z,360
2023-04-25T08:08:10.750Z,213.75
2023-04-25T08:09:11.451Z,309.38
2023-04-25T08:10:12.238Z,376.88
2023-04-25T08:11:13.199Z,427.5
2023-04-25T08:12:13.762Z,129.38
2023-04-25T08:13:14.683Z,146.25
2023-04-25T08:14:15.459Z,472.5
2023-04-25T08:15:16.612Z,309.38
2023-04-25T08:16:17.692Z,236.25
2023-04-25T08:17:17.470Z,331.88
2023-04-25T08:18:20.450Z,298.13
2023-04-25T08:19:19.393Z,281.25
2023-04-25T08:20:20.490Z,388.13
2023-04-25T08:21:21.416Z,315
2023-04-25T08:22:21.931Z,517.5
2023-04-25T08:23:22.669Z,866.25
2023-04-25T08:24:23.388Z,686.25
2023-04-25T08:25:24.085Z,1074.38
2023-04-25T08:26:24.857Z,1260
2023-04-25T08:27:25.250Z,1226.25
2023-04-25T08:28:26.241Z,1046.25
2023-04-25T08:29:25.138Z,680.63
2023-04-25T08:30:26.167Z,1006.88
2023-04-25T08:31:27.408Z,1130.63
2023-04-25T08:32:29.053Z,1271.25
2023-04-25T08:33:28.897Z,1361.25
2023-04-25T08:34:28.464Z,1406.25
2023-04-25T08:35:30.632Z,1276.88
2023-04-25T08:36:50.827Z,174.38
2023-04-25T08:38:30.757Z,157.5
2023-04-25T08:39:31.523Z,146.25
2023-04-25T08:40:32.316Z,135
2023-04-25T08:41:33.317Z,123.75
2023-04-25T08:42:34.265Z,118.13
2023-04-25T08:43:34.868Z,112.5
2023-04-25T08:44:35.798Z,106.88
2023-04-25T08:45:36.510Z,101.25
2023-04-25T08:46:37.583Z,101.25
2023-04-25T08:47:38.346Z,95.63
2023-04-25T08:48:38.689Z,95.63
2023-04-25T08:49:39.385Z,90
2023-04-25T08:50:39.949Z,90
2023-04-25T08:51:40.434Z,84.38
2023-04-25T08:52:41.245Z,78.75
2023-04-25T08:53:43.951Z,73.13
2023-04-25T08:54:53.663Z,73.13
2023-04-25T08:55:42.962Z,67.5
2023-04-25T08:56:45.704Z,67.5
2023-04-25T08:57:44.805Z,73.13
2023-04-25T08:58:44.588Z,67.5
2023-04-25T08:59:49.873Z,73.13
2023-04-25T09:00:46.837Z,78.75
2023-04-25T09:01:46.745Z,78.75
2023-04-25T09:02:48.355Z,90
2023-04-25T09:03:48.873Z,101.25
2023-04-25T09:04:48.399Z,112.5
2023-04-25T09:05:50.028Z,129.38
2023-04-25T09:06:49.166Z,151.88
2023-04-25T09:07:50.617Z,163.13
2023-04-25T09:08:50.870Z,163.13
2023-04-25T09:09:51.406Z,489.38
2023-04-25T09:10:51.902Z,343.13
2023-04-25T09:11:52.935Z,568.13
2023-04-25T09:12:53.076Z,253.13
2023-04-25T09:13:53.429Z,180
2023-04-25T09:14:53.478Z,168.75
2023-04-25T09:15:54.295Z,163.13
2023-04-25T09:16:56.569Z,157.5
2023-04-25T09:17:56.165Z,151.88
2023-04-25T09:19:04.146Z,151.88
2023-04-25T09:19:59.118Z,151.88
2023-04-25T09:21:25.886Z,146.25
2023-04-25T09:23:00.405Z,146.25
2023-04-25T09:24:01.984Z,146.25
2023-04-25T09:25:01.486Z,140.63
2023-04-25T09:26:02.577Z,129.38
2023-04-25T09:27:03.227Z,129.38
2023-04-25T09:28:03.378Z,135
2023-04-25T09:29:03.656Z,140.63
2023-04-25T09:30:03.593Z,146.25
2023-04-25T09:31:03.585Z,157.5
2023-04-25T09:32:04.843Z,168.75
2023-04-25T09:33:04.514Z,174.38
2023-04-25T09:34:08.598Z,191.25
2023-04-25T09:35:05.969Z,219.38
2023-04-25T09:36:06.657Z,365.63
2023-04-25T09:37:07.640Z,320.63
2023-04-25T09:38:08.433Z,292.5
2023-04-25T09:39:09.589Z,365.63
2023-04-25T09:40:09.853Z,241.88
2023-04-25T09:41:09.588Z,236.25
2023-04-25T09:42:10.855Z,230.63
2023-04-25T09:43:10.923Z,213.75
2023-04-25T09:44:13.287Z,213.75
2023-04-25T09:45:12.578Z,213.75
2023-04-25T09:46:12.962Z,219.38
2023-04-25T09:47:12.350Z,236.25
2023-04-25T09:48:13.666Z,225
2023-04-25T09:49:13.650Z,202.5
2023-04-25T09:50:14.196Z,180
2023-04-25T09:51:15.155Z,163.13
2023-04-25T09:52:16.071Z,151.88
2023-04-25T09:53:16.054Z,146.25
2023-04-25T09:54:16.822Z,140.63
2023-04-25T09:55:17.821Z,140.63
2023-04-25T09:56:18.888Z,140.63
2023-04-25T09:57:18.760Z,140.63
2023-04-25T09:58:19.277Z,157.5
2023-04-25T09:59:20.302Z,168.75
2023-04-25T10:00:21.179Z,196.88
2023-04-25T10:01:22.089Z,213.75
2023-04-25T10:02:22.127Z,213.75
2023-04-25T10:03:23.619Z,236.25
2023-04-25T10:04:24.297Z,247.5
2023-04-25T10:05:24.361Z,270
2023-04-25T10:06:25.295Z,258.75
2023-04-25T10:07:26.373Z,286.88
2023-04-25T10:08:26.276Z,298.13
2023-04-25T10:09:27.376Z,309.38
2023-04-25T10:10:27.733Z,275.63
2023-04-25T10:11:28.290Z,258.75
2023-04-25T10:12:28.455Z,281.25
2023-04-25T10:13:27.970Z,292.5
2023-04-25T10:14:28.878Z,253.13
2023-04-25T10:15:29.933Z,196.88
2023-04-25T10:16:31.093Z,191.25
2023-04-25T10:17:30.944Z,174.38
2023-04-25T10:18:31.847Z,163.13
2023-04-25T10:19:32.373Z,157.5
2023-04-25T10:20:33.622Z,151.88
2023-04-25T10:21:34.164Z,151.88
2023-04-25T10:22:35.363Z,151.88
2023-04-25T10:23:34.638Z,157.5
2023-04-25T10:24:36.376Z,157.5
2023-04-25T10:25:37.254Z,151.88
2023-04-25T10:26:42.037Z,146.25
2023-04-25T10:27:38.534Z,151.88
2023-04-25T10:28:39.657Z,157.5
2023-04-25T10:29:39.586Z,163.13
2023-04-25T10:30:40.201Z,151.88
2023-04-25T10:31:41.659Z,140.63
2023-04-25T10:32:42.343Z,135
2023-04-25T10:33:41.710Z,129.38
2023-04-25T10:34:42.630Z,123.75
2023-04-25T10:35:43.347Z,129.38
2023-04-25T10:36:44.045Z,129.38
2023-04-25T10:37:46.332Z,135
2023-04-25T10:38:45.103Z,135
2023-04-25T10:39:45.631Z,146.25
2023-04-25T10:40:46.189Z,163.13
2023-04-25T10:41:46.689Z,168.75
2023-04-25T10:42:47.677Z,180
2023-04-25T10:43:48.787Z,180
2023-04-25T10:44:49.029Z,168.75
2023-04-25T10:45:50.036Z,146.25
2023-04-25T10:46:50.420Z,135
2023-04-25T10:47:49.653Z,135
2023-04-25T10:48:50.390Z,140.63
2023-04-25T10:49:51.294Z,140.63
2023-04-25T10:50:51.999Z,140.63
2023-04-25T10:52:11.320Z,140.63
2023-04-25T10:53:53.571Z,135
2023-04-25T10:54:54.250Z,129.38
2023-04-25T10:55:54.825Z,123.75
2023-04-25T10:56:55.740Z,118.13
2023-04-25T10:58:59.838Z,118.13
2023-04-25T10:59:57.428Z,118.13
2023-04-25T11:01:10.054Z,112.5
2023-04-25T11:01:59.226Z,112.5
2023-04-25T11:03:00.620Z,112.5
2023-04-25T11:04:00.763Z,112.5
2023-04-25T11:04:59.999Z,112.5
2023-04-25T11:06:11.282Z,106.88
2023-04-25T11:07:06.305Z,106.88
2023-04-25T11:10:02.217Z,101.25
2023-04-25T11:11:03.298Z,106.88
2023-04-25T11:12:03.034Z,106.88
2023-04-25T11:13:04.256Z,112.5
2023-04-25T11:14:04.382Z,106.88
2023-04-25T11:15:05.099Z,101.25
2023-04-25T11:16:33.909Z,95.63
2023-04-25T11:17:08.324Z,101.25
2023-04-25T11:19:08.864Z,112.5
2023-04-25T11:20:09.405Z,129.38
2023-04-25T11:21:10.516Z,140.63
2023-04-25T11:22:11.536Z,140.63
2023-04-25T11:23:11.962Z,140.63
2023-04-25T11:24:11.888Z,140.63
2023-04-25T11:25:12.777Z,140.63
2023-04-25T11:26:13.606Z,157.5
2023-04-25T11:27:14.323Z,191.25
2023-04-25T11:28:14.985Z,219.38
2023-04-25T11:29:15.909Z,258.75
2023-04-25T11:30:16.566Z,253.13
2023-04-25T11:31:17.754Z,247.5
2023-04-25T11:32:18.247Z,258.75
2023-04-25T11:33:18.982Z,326.25
2023-04-25T11:34:18.519Z,360
2023-04-25T11:35:19.312Z,281.25
2023-04-25T11:36:19.993Z,298.13
2023-04-25T11:37:20.961Z,399.38
2023-04-25T11:38:22.475Z,450
2023-04-25T11:39:22.265Z,405
2023-04-25T11:40:22.630Z,371.25
2023-04-25T11:41:21.942Z,410.63
2023-04-25T11:42:30.377Z,405
2023-04-25T11:43:23.159Z,444.38
2023-04-25T11:44:23.883Z,433.13
2023-04-25T11:45:24.849Z,433.13
2023-04-25T11:46:26.031Z,461.25
2023-04-25T11:47:26.313Z,438.75
2023-04-25T11:48:31.204Z,399.38
2023-04-25T11:49:27.954Z,450
2023-04-25T11:50:28.654Z,461.25
2023-04-25T11:51:29.353Z,461.25
2023-04-25T11:52:29.855Z,472.5
2023-04-25T11:53:30.374Z,495
2023-04-25T11:54:31.098Z,461.25
2023-04-25T11:55:32.201Z,213.75
2023-04-25T11:56:32.311Z,382.5
2023-04-25T11:57:32.019Z,506.25
2023-04-25T11:58:33.047Z,495
2023-04-25T11:59:33.569Z,483.75
2023-04-25T12:00:35.792Z,219.38
2023-04-25T12:01:37.790Z,225
2023-04-25T12:02:36.907Z,247.5
2023-04-25T12:03:38.129Z,225
2023-04-25T12:04:38.761Z,236.25
2023-04-25T12:05:49.869Z,213.75
2023-04-25T12:06:38.762Z,174.38
2023-04-25T12:07:38.310Z,146.25
2023-04-25T12:08:38.979Z,135
2023-04-25T12:09:39.538Z,135
2023-04-25T12:10:40.898Z,146.25
2023-04-25T12:11:40.978Z,146.25
2023-04-25T12:12:41.373Z,140.63
2023-04-25T12:13:41.967Z,140.63
2023-04-25T12:14:42.730Z,146.25
2023-04-25T12:15:43.331Z,135
2023-04-25T12:16:44.322Z,123.75
2023-04-25T12:17:44.466Z,112.5
2023-04-25T12:18:48.059Z,106.88
2023-04-25T12:19:46.038Z,90
2023-04-25T12:20:46.560Z,78.75
2023-04-25T12:22:04.465Z,56.25
2023-04-25T12:22:48.232Z,50.63
2023-04-25T12:23:49.197Z,39.38
2023-04-25T12:24:51.133Z,33.75
2023-04-25T12:25:51.492Z,28.13
2023-04-25T12:26:51.724Z,22.5
2023-04-25T12:27:52.318Z,16.88
2023-04-25T12:28:52.953Z,11.25
2023-04-25T12:30:06.345Z,11.25
2023-04-25T12:30:56.707Z,22.5
2023-04-25T12:31:56.012Z,33.75
2023-04-25T12:32:56.588Z,56.25
2023-04-25T12:33:56.136Z,73.13
2023-04-25T12:34:56.726Z,78.75
2023-04-25T12:35:59.620Z,101.25
2023-04-25T12:36:58.167Z,118.13
2023-04-25T12:37:59.106Z,376.88
2023-04-25T12:39:00.440Z,337.5
2023-04-25T12:40:00.001Z,151.88
2023-04-25T12:41:01.328Z,129.38
2023-04-25T12:42:01.144Z,106.88
2023-04-25T12:43:02.064Z,73.13
2023-04-25T12:44:03.038Z,45
2023-04-25T12:45:04.052Z,33.75
2023-04-25T12:46:05.091Z,28.13
2023-04-25T12:47:06.694Z,33.75
2023-04-25T12:48:09.405Z,39.38
2023-04-25T12:49:27.764Z,45
2023-04-25T12:51:07.940Z,67.5
2023-04-25T12:52:08.721Z,78.75
2023-04-25T12:53:09.448Z,95.63
2023-04-25T12:54:10.239Z,101.25
2023-04-25T12:55:10.344Z,101.25
2023-04-25T12:56:12.012Z,106.88
2023-04-25T12:57:11.698Z,106.88
2023-04-25T12:58:12.607Z,112.5
2023-04-25T12:59:13.547Z,118.13
2023-04-25T13:00:14.517Z,118.13
2023-04-25T13:01:15.630Z,118.13
2023-04-25T13:02:16.806Z,106.88
2023-04-25T13:03:17.995Z,78.75
2023-04-25T13:04:17.964Z,73.13
2023-04-25T13:05:18.016Z,84.38
2023-04-25T13:06:18.736Z,106.88
2023-04-25T13:07:19.485Z,106.88
2023-04-25T13:08:20.658Z,95.63
2023-04-25T13:09:20.303Z,78.75
2023-04-25T13:10:21.014Z,73.13
2023-04-25T13:11:21.783Z,73.13
2023-04-25T13:12:22.320Z,61.88
2023-04-25T13:13:23.267Z,56.25
2023-04-25T13:14:24.805Z,56.25
2023-04-25T13:15:24.588Z,67.5
2023-04-25T13:16:25.996Z,67.5
2023-04-25T13:17:26.830Z,78.75
2023-04-25T13:18:27.016Z,95.63
2023-04-25T13:19:26.743Z,106.88
2023-04-25T13:20:27.244Z,129.38
2023-04-25T13:21:28.261Z,129.38
2023-04-25T13:22:29.233Z,129.38
2023-04-25T13:23:29.753Z,163.13
2023-04-25T13:24:30.835Z,168.75
2023-04-25T13:25:31.553Z,174.38
2023-04-25T13:26:32.250Z,151.88
2023-04-25T13:27:32.936Z,168.75
2023-04-25T13:28:33.928Z,180
2023-04-25T13:29:35.036Z,174.38
2023-04-25T13:30:34.994Z,163.13
2023-04-25T13:31:35.695Z,157.5
2023-04-25T13:32:36.816Z,135
2023-04-25T13:33:36.597Z,135
2023-04-25T13:34:37.130Z,140.63
2023-04-25T13:35:37.725Z,140.63
2023-04-25T13:36:38.971Z,140.63
2023-04-25T13:37:39.266Z,157.5
2023-04-25T13:38:39.254Z,163.13
2023-04-25T13:39:39.914Z,163.13
2023-04-25T13:40:41.900Z,168.75
2023-04-25T13:41:42.175Z,168.75
2023-04-25T13:42:43.645Z,163.13